createdAt,value
2022-09-12T00:00:40.037Z,9.757425
2022-09-12T00:01:40.062Z,9.757421
2022-09-12T00:02:40.195Z,9.757469
2022-09-12T00:03:40.022Z,9.757581
2022-09-12T00:04:40.042Z,9.757565
2022-09-12T00:05:39.997Z,9.757410
2022-09-12T00:06:39.993Z,9.757455
2022-09-12T00:07:39.976Z,9.757487
2022-09-12T00:08:39.971Z,9.757480
2022-09-12T00:09:39.996Z,9.757544
2022-09-12T00:10:39.956Z,9.757424
2022-09-12T00:11:39.946Z,9.757460
2022-09-12T00:12:39.945Z,9.757453
2022-09-12T00:13:41.842Z,9.757430
2022-09-12T00:14:40.960Z,9.757422
2022-09-12T00:15:39.918Z,9.757571
2022-09-12T00:16:40.018Z,9.757624
2022-09-12T00:17:39.896Z,9.757426
2022-09-12T00:18:39.916Z,9.757434
2022-09-12T00:19:39.878Z,9.757452
2022-09-12T00:20:39.870Z,9.757347
2022-09-12T00:21:39.874Z,9.757413
2022-09-12T00:22:39.863Z,9.757498
2022-09-12T00:23:39.878Z,9.757475
2022-09-12T00:24:39.837Z,9.757425
2022-09-12T00:25:39.846Z,9.757398
2022-09-12T00:26:39.821Z,9.757405
2022-09-12T00:27:39.814Z,9.757457
2022-09-12T00:28:39.847Z,9.757659
2022-09-12T00:29:39.809Z,9.757603
2022-09-12T00:30:39.793Z,9.757517
2022-09-12T00:31:39.836Z,9.757637
2022-09-12T00:32:39.837Z,9.757540
2022-09-12T00:33:39.792Z,9.757618
2022-09-12T00:34:39.755Z,9.757526
2022-09-12T00:35:39.751Z,9.757593
2022-09-12T00:36:39.740Z,9.757555
2022-09-12T00:37:39.726Z,9.757603
2022-09-12T00:38:39.752Z,9.757683
2022-09-12T00:39:39.734Z,9.757567
2022-09-12T00:40:39.699Z,9.757668
2022-09-12T00:41:39.693Z,9.757573
2022-09-12T00:42:39.686Z,9.757439
2022-09-12T00:43:39.711Z,9.757395
2022-09-12T00:44:39.668Z,9.757353
2022-09-12T00:45:39.692Z,9.757395
2022-09-12T00:46:39.653Z,9.757442
2022-09-12T00:47:39.641Z,9.757402
2022-09-12T00:48:39.663Z,9.757386
2022-09-12T00:49:39.622Z,9.757380
2022-09-12T00:50:39.613Z,9.757416
2022-09-12T00:51:39.605Z,9.757447
2022-09-12T00:52:39.598Z,9.757438
2022-09-12T00:53:39.622Z,9.757412
2022-09-12T00:54:39.586Z,9.757471
2022-09-12T00:55:39.576Z,9.757486
2022-09-12T00:56:39.573Z,9.757445
2022-09-12T00:57:39.560Z,9.757423
2022-09-12T00:58:39.583Z,9.757420
2022-09-12T00:59:39.547Z,9.757474
2022-09-12T01:00:39.538Z,9.757440
2022-09-12T01:01:39.616Z,9.757427
2022-09-12T01:02:39.540Z,9.757451
2022-09-12T01:03:40.509Z,9.757425
2022-09-12T01:04:39.509Z,9.757520
2022-09-12T01:05:39.498Z,9.757475
2022-09-12T01:06:39.481Z,9.757347
2022-09-12T01:07:40.323Z,9.757430
2022-09-12T01:08:40.511Z,9.757445
2022-09-12T01:09:39.473Z,9.757491
2022-09-12T01:10:39.453Z,9.757496
2022-09-12T01:11:39.441Z,9.757477
2022-09-12T01:12:39.481Z,9.757555
2022-09-12T01:13:39.444Z,9.757684
2022-09-12T01:14:39.418Z,9.757570
2022-09-12T01:15:39.413Z,9.757516
2022-09-12T01:16:39.463Z,9.757507
2022-09-12T01:17:39.387Z,9.757524
2022-09-12T01:18:39.434Z,9.757643
2022-09-12T01:19:39.376Z,9.757758
2022-09-12T01:20:39.370Z,9.757789
2022-09-12T01:21:39.357Z,9.757600
2022-09-12T01:22:39.366Z,9.757269
2022-09-12T01:23:39.376Z,9.757421
2022-09-12T01:24:39.330Z,9.757558
2022-09-12T01:25:39.330Z,9.757463
2022-09-12T01:26:39.357Z,9.757596
2022-09-12T01:27:39.306Z,9.757469
2022-09-12T01:28:39.327Z,9.757609
2022-09-12T01:29:39.292Z,9.757576
2022-09-12T01:30:39.295Z,9.757485
2022-09-12T01:31:39.280Z,9.757416
2022-09-12T01:32:39.268Z,9.757513
2022-09-12T01:33:39.291Z,9.757513
2022-09-12T01:34:39.255Z,9.757578
2022-09-12T01:35:39.244Z,9.757534
2022-09-12T01:36:39.231Z,9.757500
2022-09-12T01:37:39.238Z,9.757625
2022-09-12T01:38:39.246Z,9.757551
2022-09-12T01:39:39.244Z,9.757530
2022-09-12T01:40:39.203Z,9.757536
2022-09-12T01:41:39.188Z,9.757510
2022-09-12T01:42:39.181Z,9.757495
2022-09-12T01:43:39.201Z,9.757510
2022-09-12T01:44:39.173Z,9.757526
2022-09-12T01:45:39.178Z,9.757471
2022-09-12T01:46:39.145Z,9.757400
2022-09-12T01:47:39.150Z,9.757444
2022-09-12T01:48:39.167Z,9.757580
2022-09-12T01:49:39.165Z,9.757407
2022-09-12T01:50:39.126Z,9.757526
2022-09-12T01:51:39.111Z,9.757508
2022-09-12T01:52:39.107Z,9.757634
2022-09-12T01:53:39.121Z,9.757499
2022-09-12T01:54:39.087Z,9.757465
2022-09-12T01:55:39.147Z,9.757481
2022-09-12T01:56:39.066Z,9.757529
2022-09-12T01:57:39.068Z,9.757492
2022-09-12T01:58:39.136Z,9.757586
2022-09-12T01:59:39.044Z,9.757491
2022-09-12T02:00:39.031Z,9.757495
2022-09-12T02:01:39.021Z,9.757455
2022-09-12T02:02:39.019Z,9.757482
2022-09-12T02:03:39.069Z,9.757539
2022-09-12T02:04:38.999Z,9.757542
2022-09-12T02:05:38.990Z,9.757539
2022-09-12T02:06:38.989Z,9.757534
2022-09-12T02:07:38.975Z,9.757475
2022-09-12T02:08:38.990Z,9.757442
2022-09-12T02:09:38.960Z,9.757419
2022-09-12T02:10:38.942Z,9.757404
2022-09-12T02:11:38.945Z,9.757434
2022-09-12T02:12:38.931Z,9.757539
2022-09-12T02:13:38.951Z,9.757494
2022-09-12T02:14:38.913Z,9.757466
2022-09-12T02:15:38.913Z,9.757401
2022-09-12T02:16:38.959Z,9.757399
2022-09-12T02:17:38.903Z,9.757430
2022-09-12T02:18:38.914Z,9.757465
2022-09-12T02:19:38.895Z,9.757471
2022-09-12T02:20:48.260Z,9.757472
2022-09-12T02:21:40.862Z,9.757477
2022-09-12T02:22:38.850Z,9.757409
2022-09-12T02:23:38.876Z,9.757423
2022-09-12T02:24:38.840Z,9.757442
2022-09-12T02:25:38.834Z,9.757388
2022-09-12T02:26:38.812Z,9.757372
2022-09-12T02:27:38.804Z,9.757450
2022-09-12T02:28:38.820Z,9.757507
2022-09-12T02:29:38.792Z,9.757528
2022-09-12T02:30:38.814Z,9.757500
2022-09-12T02:31:38.765Z,9.757469
2022-09-12T02:32:38.760Z,9.757481
2022-09-12T02:33:38.775Z,9.757443
2022-09-12T02:34:38.747Z,9.757511
2022-09-12T02:35:38.734Z,9.757415
2022-09-12T02:36:38.726Z,9.757405
2022-09-12T02:37:38.725Z,9.757490
2022-09-12T02:38:38.732Z,9.757523
2022-09-12T02:39:41.134Z,9.757533
2022-09-12T02:40:39.693Z,9.757637
2022-09-12T02:41:38.687Z,9.757490
2022-09-12T02:42:38.682Z,9.757578
2022-09-12T02:43:38.703Z,9.757581
2022-09-12T02:44:38.668Z,9.757755
2022-09-12T02:45:38.686Z,9.757464
2022-09-12T02:46:38.646Z,9.757548
2022-09-12T02:47:38.643Z,9.757492
2022-09-12T02:48:40.552Z,9.757545
2022-09-12T02:49:38.622Z,9.757463
2022-09-12T02:50:38.618Z,9.757545
2022-09-12T02:51:38.605Z,9.757475
2022-09-12T02:52:38.606Z,9.757326
2022-09-12T02:53:38.625Z,9.757354
2022-09-12T02:54:38.587Z,9.757442
2022-09-12T02:55:38.569Z,9.757381
2022-09-12T02:56:38.558Z,9.757293
2022-09-12T02:57:38.554Z,9.757507
2022-09-12T02:58:38.580Z,9.757591
2022-09-12T02:59:38.540Z,9.757401
2022-09-12T03:00:38.525Z,9.757405
2022-09-12T03:01:38.526Z,9.757327
2022-09-12T03:02:38.513Z,9.757388
2022-09-12T03:03:43.161Z,9.757430
2022-09-12T03:04:40.524Z,9.757633
2022-09-12T03:05:38.486Z,9.757484
2022-09-12T03:06:38.494Z,9.757565
2022-09-12T03:07:38.479Z,9.757648
2022-09-12T03:08:38.459Z,9.757389
2022-09-12T03:09:38.479Z,9.757441
2022-09-12T03:10:38.442Z,9.757383
2022-09-12T03:11:38.441Z,9.757453
2022-09-12T03:12:38.425Z,9.757473
2022-09-12T03:13:38.419Z,9.757400
2022-09-12T03:14:38.443Z,9.757522
2022-09-12T03:15:38.411Z,9.757453
2022-09-12T03:16:38.435Z,9.757275
2022-09-12T03:17:38.390Z,9.757423
2022-09-12T03:18:38.379Z,9.757333
2022-09-12T03:19:38.403Z,9.757415
2022-09-12T03:20:38.361Z,9.757465
2022-09-12T03:21:38.350Z,9.757375
2022-09-12T03:22:39.351Z,9.757275
2022-09-12T03:23:38.340Z,9.757378
2022-09-12T03:24:38.364Z,9.757227
2022-09-12T03:25:38.319Z,9.757816
2022-09-12T03:26:38.322Z,9.757689
2022-09-12T03:27:38.301Z,9.757665
2022-09-12T03:28:38.328Z,9.757734
2022-09-12T03:29:38.319Z,9.757729
2022-09-12T03:30:38.308Z,9.757636
2022-09-12T03:31:38.274Z,9.757485
2022-09-12T03:32:38.262Z,9.757529
2022-09-12T03:33:38.251Z,9.757544
2022-09-12T03:34:38.272Z,9.757564
2022-09-12T03:35:38.236Z,9.757766
2022-09-12T03:36:38.235Z,9.757949
2022-09-12T03:37:38.216Z,9.757879
2022-09-12T03:38:38.219Z,9.757627
2022-09-12T03:39:38.301Z,9.757854
2022-09-12T03:40:38.199Z,9.757924
2022-09-12T03:41:38.188Z,9.757912
2022-09-12T03:42:38.166Z,9.757946
2022-09-12T03:43:38.172Z,9.757730
2022-09-12T03:44:38.192Z,9.757745
2022-09-12T03:45:38.241Z,9.757944
2022-09-12T03:46:38.142Z,9.757442
2022-09-12T03:47:38.126Z,9.757851
2022-09-12T03:48:38.122Z,9.758042
2022-09-12T03:49:38.143Z,9.757746
2022-09-12T03:50:38.110Z,9.757624
2022-09-12T03:51:38.094Z,9.757702
2022-09-12T03:52:38.094Z,9.757625
2022-09-12T03:53:38.078Z,9.757771
2022-09-12T03:54:38.104Z,9.757475
2022-09-12T03:55:38.060Z,9.757768
2022-09-12T03:56:38.060Z,9.757752
2022-09-12T03:57:38.047Z,9.757741
2022-09-12T03:58:38.036Z,9.757592
2022-09-12T03:59:38.055Z,9.757477
2022-09-12T04:00:38.047Z,9.757358
2022-09-12T04:01:38.017Z,9.757447
2022-09-12T04:02:38.009Z,9.757556
2022-09-12T04:03:37.992Z,9.757655
2022-09-12T04:04:38.012Z,9.757629
2022-09-12T04:05:37.979Z,9.757253
2022-09-12T04:06:37.966Z,9.757438
2022-09-12T04:07:37.960Z,9.757086
2022-09-12T04:08:37.952Z,9.757224
2022-09-12T04:09:37.974Z,9.757420
2022-09-12T04:10:37.930Z,9.757504
2022-09-12T04:11:37.924Z,9.757477
2022-09-12T04:12:37.921Z,9.757719
2022-09-12T04:13:37.912Z,9.757759
2022-09-12T04:14:37.933Z,9.757582
2022-09-12T04:15:37.891Z,9.757427
2022-09-12T04:16:37.935Z,9.757430
2022-09-12T04:17:37.874Z,9.757678
2022-09-12T04:18:37.868Z,9.757589
2022-09-12T04:19:37.887Z,9.757488
2022-09-12T04:20:37.850Z,9.757338
2022-09-12T04:21:37.860Z,9.757374
2022-09-12T04:22:37.845Z,9.757416
2022-09-12T04:23:37.829Z,9.757336
2022-09-12T04:24:37.853Z,9.757442
2022-09-12T04:25:37.806Z,9.757123
2022-09-12T04:26:37.799Z,9.756834
2022-09-12T04:27:37.793Z,9.757077
2022-09-12T04:28:37.782Z,9.756874
2022-09-12T04:29:37.797Z,9.757173
2022-09-12T04:30:37.814Z,9.758039
2022-09-12T04:31:37.754Z,9.757957
2022-09-12T04:32:37.739Z,9.757798
2022-09-12T04:33:37.732Z,9.757772
2022-09-12T04:34:37.750Z,9.757830
2022-09-12T04:35:37.721Z,9.757692
2022-09-12T04:36:37.718Z,9.757461
2022-09-12T04:37:37.700Z,9.757338
2022-09-12T04:38:37.693Z,9.757195
2022-09-12T04:39:37.753Z,9.757445
2022-09-12T04:40:37.675Z,9.757691
2022-09-12T04:41:37.674Z,9.757583
2022-09-12T04:42:37.655Z,9.757251
2022-09-12T04:43:37.648Z,9.757049
2022-09-12T04:44:37.673Z,9.756963
2022-09-12T04:45:37.661Z,9.757000
2022-09-12T04:46:37.608Z,9.757215
2022-09-12T04:47:38.609Z,9.757647
2022-09-12T04:48:37.607Z,9.757545
2022-09-12T04:49:37.628Z,9.757421
2022-09-12T04:50:37.585Z,9.757446
2022-09-12T04:51:37.581Z,9.757416
2022-09-12T04:52:37.570Z,9.757440
2022-09-12T04:53:37.560Z,9.757377
2022-09-12T04:54:37.583Z,9.757502
2022-09-12T04:55:37.549Z,9.757465
2022-09-12T04:56:37.536Z,9.757244
2022-09-12T04:57:37.536Z,9.757321
2022-09-12T04:58:37.520Z,9.757487
2022-09-12T04:59:37.547Z,9.757457
2022-09-12T05:00:37.507Z,9.757443
2022-09-12T05:01:37.536Z,9.757410
2022-09-12T05:02:37.512Z,9.757505
2022-09-12T05:03:37.603Z,9.757390
2022-09-12T05:04:37.505Z,9.757359
2022-09-12T05:05:37.469Z,9.757384
2022-09-12T05:06:37.458Z,9.757309
2022-09-12T05:07:37.491Z,9.757412
2022-09-12T05:08:37.437Z,9.757454
2022-09-12T05:09:37.459Z,9.757403
2022-09-12T05:10:37.419Z,9.757375
2022-09-12T05:12:02.520Z,9.757498
2022-09-12T05:12:39.419Z,9.757428
2022-09-12T05:13:37.391Z,9.757270
2022-09-12T05:14:37.410Z,9.757272
2022-09-12T05:15:37.395Z,9.757320
2022-09-12T05:16:37.384Z,9.757367
2022-09-12T05:17:37.358Z,9.757383
2022-09-12T05:18:37.349Z,9.757390
2022-09-12T05:19:37.376Z,9.757468
2022-09-12T05:20:37.347Z,9.757373
2022-09-12T05:21:37.327Z,9.757461
2022-09-12T05:22:37.339Z,9.757459
2022-09-12T05:23:37.308Z,9.757537
2022-09-12T05:24:37.330Z,9.757434
2022-09-12T05:25:37.296Z,9.757408
2022-09-12T05:26:37.385Z,9.757407
2022-09-12T05:27:37.278Z,9.757336
2022-09-12T05:28:37.271Z,9.757351
2022-09-12T05:29:37.296Z,9.757467
2022-09-12T05:30:37.294Z,9.757415
2022-09-12T05:31:37.250Z,9.757392
2022-09-12T05:32:37.235Z,9.757408
2022-09-12T05:33:37.234Z,9.757363
2022-09-12T05:34:37.273Z,9.757356
2022-09-12T05:35:37.214Z,9.757339
2022-09-12T05:36:37.205Z,9.757367
2022-09-12T05:37:37.202Z,9.757399
2022-09-12T05:38:37.190Z,9.757425
2022-09-12T05:39:37.308Z,9.757461
2022-09-12T05:40:37.179Z,9.757442
2022-09-12T05:41:37.164Z,9.757369
2022-09-12T05:42:37.159Z,9.757424
2022-09-12T05:43:37.148Z,9.757409
2022-09-12T05:44:37.159Z,9.757383
2022-09-12T05:45:37.184Z,9.757324
2022-09-12T05:46:37.123Z,9.757362
2022-09-12T05:47:37.113Z,9.757453
2022-09-12T05:48:37.103Z,9.757351
2022-09-12T05:49:37.120Z,9.757360
2022-09-12T05:50:37.081Z,9.757413
2022-09-12T05:51:37.076Z,9.757352
2022-09-12T05:52:37.088Z,9.757365
2022-09-12T05:53:37.058Z,9.757416
2022-09-12T05:54:37.107Z,9.757428
2022-09-12T05:55:37.042Z,9.757447
2022-09-12T05:56:37.032Z,9.757412
2022-09-12T05:57:37.027Z,9.757455
2022-09-12T05:58:37.017Z,9.757445
2022-09-12T05:59:37.000Z,9.757516
2022-09-12T06:00:38.030Z,9.757493
2022-09-12T06:01:37.018Z,9.757487
2022-09-12T06:02:37.026Z,9.757504
2022-09-12T06:03:36.976Z,9.757509
2022-09-12T06:04:36.964Z,9.757504
2022-09-12T06:05:36.989Z,9.757462
2022-09-12T06:06:36.955Z,9.757388
2022-09-12T06:07:36.949Z,9.757356
2022-09-12T06:08:36.937Z,9.757440
2022-09-12T06:09:36.924Z,9.757474
2022-09-12T06:10:36.955Z,9.757478
2022-09-12T06:11:36.913Z,9.757329
2022-09-12T06:12:36.898Z,9.757431
2022-09-12T06:13:36.894Z,9.757495
2022-09-12T06:14:36.881Z,9.757503
2022-09-12T06:15:36.902Z,9.757549
2022-09-12T06:16:36.890Z,9.757574
2022-09-12T06:17:36.885Z,9.757587
2022-09-12T06:18:36.852Z,9.757580
2022-09-12T06:19:36.847Z,9.757528
2022-09-12T06:20:36.861Z,9.757460
2022-09-12T06:21:36.822Z,9.757486
2022-09-12T06:22:36.821Z,9.757614
2022-09-12T06:23:36.813Z,9.757448
2022-09-12T06:24:36.803Z,9.757510
2022-09-12T06:25:36.818Z,9.757482
2022-09-12T06:26:36.788Z,9.757454
2022-09-12T06:27:36.772Z,9.757539
2022-09-12T06:28:36.768Z,9.757520
2022-09-12T06:29:36.758Z,9.757481
2022-09-12T06:30:36.802Z,9.757577
2022-09-12T06:31:36.741Z,9.757457
2022-09-12T06:32:36.737Z,9.757489
2022-09-12T06:33:36.721Z,9.757496
2022-09-12T06:34:36.718Z,9.757457
2022-09-12T06:35:36.735Z,9.757560
2022-09-12T06:36:36.704Z,9.757583
2022-09-12T06:37:36.694Z,9.757467
2022-09-12T06:38:36.686Z,9.757310
2022-09-12T06:39:36.675Z,9.757388
2022-09-12T06:40:36.700Z,9.757472
2022-09-12T06:41:39.396Z,9.757474
2022-09-12T06:42:37.644Z,9.757451
2022-09-12T06:43:37.056Z,9.757303
2022-09-12T06:44:36.635Z,9.757459
2022-09-12T06:45:36.724Z,9.757411
2022-09-12T06:46:36.621Z,9.757441
2022-09-12T06:47:36.608Z,9.757404
2022-09-12T06:48:41.517Z,9.757468
2022-09-12T06:49:38.591Z,9.757444
2022-09-12T06:50:36.628Z,9.757524
2022-09-12T06:51:36.574Z,9.757520
2022-09-12T06:52:36.572Z,9.757491
2022-09-12T06:53:36.571Z,9.757710
2022-09-12T06:54:36.552Z,9.757587
2022-09-12T06:55:36.588Z,9.757632
2022-09-12T06:56:36.536Z,9.757561
2022-09-12T06:57:36.530Z,9.757499
2022-09-12T06:58:36.522Z,9.757377
2022-09-12T06:59:36.510Z,9.757281
2022-09-12T07:00:36.540Z,9.757491
2022-09-12T07:01:36.576Z,9.757524
2022-09-12T07:02:36.525Z,9.757756
2022-09-12T07:03:36.481Z,9.757585
2022-09-12T07:04:36.474Z,9.757844
2022-09-12T07:05:36.464Z,9.757610
2022-09-12T07:06:36.479Z,9.757743
2022-09-12T07:07:36.447Z,9.757683
2022-09-12T07:08:36.435Z,9.757701
2022-09-12T07:09:36.440Z,9.757672
2022-09-12T07:10:36.444Z,9.757623
2022-09-12T07:11:36.422Z,9.757581
2022-09-12T07:12:36.410Z,9.757532
2022-09-12T07:13:36.401Z,9.757579
2022-09-12T07:14:36.409Z,9.757567
2022-09-12T07:15:36.371Z,9.757491
2022-09-12T07:16:36.424Z,9.757540
2022-09-12T07:17:36.363Z,9.757708
2022-09-12T07:18:36.357Z,9.757565
2022-09-12T07:19:36.338Z,9.757510
2022-09-12T07:20:36.330Z,9.757534
2022-09-12T07:21:36.351Z,9.757715
2022-09-12T07:22:36.317Z,9.757663
2022-09-12T07:23:36.305Z,9.757477
2022-09-12T07:24:36.297Z,9.757728
2022-09-12T07:25:36.290Z,9.757369
2022-09-12T07:26:36.310Z,9.757305
2022-09-12T07:27:36.271Z,9.757210
2022-09-12T07:28:36.337Z,9.757247
2022-09-12T07:29:37.693Z,9.757223
2022-09-12T07:30:37.268Z,9.757154
2022-09-12T07:31:37.266Z,9.757327
2022-09-12T07:32:36.228Z,9.757339
2022-09-12T07:33:36.289Z,9.757804
2022-09-12T07:34:36.217Z,9.757915
2022-09-12T07:35:36.211Z,9.757694
2022-09-12T07:36:36.222Z,9.757523
2022-09-12T07:37:36.189Z,9.757305
2022-09-12T07:38:36.211Z,9.757241
2022-09-12T07:39:36.174Z,9.757328
2022-09-12T07:40:36.192Z,9.757423
2022-09-12T07:41:36.158Z,9.757402
2022-09-12T07:42:36.142Z,9.757618
2022-09-12T07:43:36.138Z,9.757565
2022-09-12T07:44:36.147Z,9.757423
2022-09-12T07:45:36.186Z,9.757374
2022-09-12T07:46:36.107Z,9.757544
2022-09-12T07:47:36.094Z,9.757587
2022-09-12T07:48:37.098Z,9.757572
2022-09-12T07:49:36.088Z,9.757627
2022-09-12T07:50:36.078Z,9.757669
2022-09-12T07:51:36.105Z,9.757616
2022-09-12T07:52:36.063Z,9.757642
2022-09-12T07:53:36.094Z,9.757778
2022-09-12T07:54:36.046Z,9.757738
2022-09-12T07:55:36.048Z,9.757735
2022-09-12T07:56:39.159Z,9.757650
2022-09-12T07:57:37.021Z,9.757575
2022-09-12T07:58:36.010Z,9.757646
2022-09-12T07:59:52.004Z,9.757602
2022-09-12T08:00:37.992Z,9.757602
2022-09-12T08:01:36.084Z,9.757803
2022-09-12T08:02:36.034Z,9.757904
2022-09-12T08:03:36.014Z,9.757822
2022-09-12T08:04:35.957Z,9.757575
2022-09-12T08:05:35.985Z,9.757417
2022-09-12T08:06:36.229Z,9.757453
2022-09-12T08:07:35.932Z,9.757534
2022-09-12T08:08:35.928Z,9.757438
2022-09-12T08:09:35.912Z,9.757469
2022-09-12T08:10:35.903Z,9.757470
2022-09-12T08:11:35.927Z,9.757429
2022-09-12T08:12:35.897Z,9.757491
2022-09-12T08:13:35.975Z,9.757490
2022-09-12T08:14:35.890Z,9.757454
2022-09-12T08:15:35.950Z,9.757380
2022-09-12T08:16:35.884Z,9.757421
2022-09-12T08:17:35.850Z,9.757411
2022-09-12T08:18:35.838Z,9.757491
2022-09-12T08:19:35.833Z,9.757410
2022-09-12T08:20:35.824Z,9.757425
2022-09-12T08:21:35.849Z,9.757422
2022-09-12T08:22:35.806Z,9.757371
2022-09-12T08:23:35.816Z,9.757465
2022-09-12T08:24:35.797Z,9.757468
2022-09-12T08:25:35.785Z,9.757390
2022-09-12T08:26:35.799Z,9.757421
2022-09-12T08:27:35.799Z,9.757460
2022-09-12T08:28:35.760Z,9.757333
2022-09-12T08:29:35.748Z,9.757406
2022-09-12T08:30:35.776Z,9.757421
2022-09-12T08:31:35.753Z,9.757451
2022-09-12T08:32:35.721Z,9.757378
2022-09-12T08:33:35.762Z,9.757434
2022-09-12T08:34:35.705Z,9.757458
2022-09-12T08:35:35.697Z,9.757443
2022-09-12T08:36:35.718Z,9.757472
2022-09-12T08:37:35.681Z,9.757370
2022-09-12T08:38:35.696Z,9.757442
2022-09-12T08:39:35.666Z,9.757526
2022-09-12T08:40:35.656Z,9.757400
2022-09-12T08:41:35.720Z,9.757430
2022-09-12T08:42:35.662Z,9.757403
2022-09-12T08:43:35.798Z,9.757258
2022-09-12T08:44:35.622Z,9.757445
2022-09-12T08:45:35.689Z,9.757438
2022-09-12T08:46:35.632Z,9.757475
2022-09-12T08:47:35.601Z,9.757277
2022-09-12T08:48:35.620Z,9.757419
2022-09-12T08:49:35.587Z,9.757425
2022-09-12T08:50:35.571Z,9.757376
2022-09-12T08:51:35.594Z,9.757456
2022-09-12T08:52:35.542Z,9.757394
2022-09-12T08:53:36.549Z,9.757439
2022-09-12T08:54:35.534Z,9.757442
2022-09-12T08:55:35.531Z,9.757454
2022-09-12T08:56:35.564Z,9.757438
2022-09-12T08:57:35.511Z,9.757402
2022-09-12T08:58:35.509Z,9.757387
2022-09-12T08:59:35.505Z,9.757427
2022-09-12T09:00:35.485Z,9.757528
2022-09-12T09:01:35.710Z,9.757523
2022-09-12T09:02:35.530Z,9.757604
2022-09-12T09:03:35.513Z,9.757548
2022-09-12T09:04:35.495Z,9.757539
2022-09-12T09:05:35.445Z,9.757537
2022-09-12T09:06:35.461Z,9.757518
2022-09-12T09:07:35.428Z,9.757634
2022-09-12T09:08:35.537Z,9.757638
2022-09-12T09:09:35.418Z,9.757443
2022-09-12T09:10:35.412Z,9.757424
2022-09-12T09:11:35.426Z,9.757549
2022-09-12T09:12:35.395Z,9.757546
2022-09-12T09:13:35.471Z,9.757392
2022-09-12T09:14:35.365Z,9.757459
2022-09-12T09:15:35.405Z,9.757513
2022-09-12T09:16:35.377Z,9.757729
2022-09-12T09:17:35.345Z,9.757520
2022-09-12T09:18:35.364Z,9.757518
2022-09-12T09:19:35.335Z,9.757610
2022-09-12T09:20:35.320Z,9.757574
2022-09-12T09:21:35.341Z,9.757434
2022-09-12T09:22:36.263Z,9.757556
2022-09-12T09:23:35.324Z,9.757136
2022-09-12T09:24:35.289Z,9.757577
2022-09-12T09:25:35.290Z,9.757599
2022-09-12T09:26:35.910Z,9.757580
2022-09-12T09:27:40.961Z,9.757517
2022-09-12T09:28:37.255Z,9.757571
2022-09-12T09:29:35.244Z,9.757442
2022-09-12T09:30:35.390Z,9.757428
2022-09-12T09:31:35.267Z,9.757545
2022-09-12T09:32:35.221Z,9.757607
2022-09-12T09:33:35.213Z,9.757687
2022-09-12T09:34:35.204Z,9.757500
2022-09-12T09:35:36.617Z,9.757516
2022-09-12T09:36:36.221Z,9.757506
2022-09-12T09:37:35.182Z,9.757648
2022-09-12T09:38:35.242Z,9.757637
2022-09-12T09:39:35.167Z,9.757568
2022-09-12T09:40:35.161Z,9.757482
2022-09-12T09:41:35.176Z,9.757582
2022-09-12T09:42:35.149Z,9.757563
2022-09-12T09:43:35.142Z,9.757503
2022-09-12T09:44:35.127Z,9.757381
2022-09-12T09:45:35.125Z,9.757370
2022-09-12T09:46:35.176Z,9.757511
2022-09-12T09:47:35.117Z,9.757507
2022-09-12T09:48:35.100Z,9.757533
2022-09-12T09:49:35.094Z,9.757548
2022-09-12T09:50:35.101Z,9.757480
2022-09-12T09:51:35.113Z,9.757463
2022-09-12T09:52:35.076Z,9.757516
2022-09-12T09:53:35.071Z,9.757486
2022-09-12T09:54:35.071Z,9.757458
2022-09-12T09:55:35.053Z,9.757491
2022-09-12T09:56:37.272Z,9.757491
2022-09-12T09:57:35.052Z,9.757527
2022-09-12T09:58:35.143Z,9.757515
2022-09-12T09:59:35.026Z,9.757590
2022-09-12T10:00:35.020Z,9.757547
2022-09-12T10:01:35.153Z,9.757494
2022-09-12T10:02:35.081Z,9.757635
2022-09-12T10:03:35.022Z,9.757547
2022-09-12T10:04:39.213Z,9.757491
2022-09-12T10:05:36.976Z,9.757518
2022-09-12T10:06:36.015Z,9.757585
2022-09-12T10:07:34.969Z,9.757465
2022-09-12T10:08:35.079Z,9.757440
2022-09-12T10:09:34.956Z,9.757405
2022-09-12T10:10:34.951Z,9.757373
2022-09-12T10:11:34.950Z,9.757459
2022-09-12T10:12:34.967Z,9.757470
2022-09-12T10:13:35.012Z,9.757535
2022-09-12T10:14:34.921Z,9.757491
2022-09-12T10:15:34.976Z,9.757458
2022-09-12T10:16:34.901Z,9.757388
2022-09-12T10:17:34.925Z,9.757373
2022-09-12T10:18:34.889Z,9.757479
2022-09-12T10:19:34.884Z,9.757378
2022-09-12T10:20:34.878Z,9.757417
2022-09-12T10:21:34.869Z,9.757426
2022-09-12T10:22:34.888Z,9.757451
2022-09-12T10:23:34.882Z,9.757427
2022-09-12T10:24:34.841Z,9.757473
2022-09-12T10:25:35.853Z,9.757536
2022-09-12T10:26:34.847Z,9.757507
2022-09-12T10:27:34.854Z,9.757721
2022-09-12T10:28:34.864Z,9.757490
2022-09-12T10:29:34.836Z,9.757545
2022-09-12T10:30:34.831Z,9.757496
2022-09-12T10:31:34.799Z,9.757519
2022-09-12T10:32:34.820Z,9.757583
2022-09-12T10:33:34.786Z,9.757409
2022-09-12T10:34:34.776Z,9.757488
2022-09-12T10:35:34.767Z,9.757487
2022-09-12T10:36:34.754Z,9.757507
2022-09-12T10:37:34.786Z,9.757466
2022-09-12T10:38:34.760Z,9.757575
2022-09-12T10:39:34.736Z,9.757406
2022-09-12T10:40:34.729Z,9.757363
2022-09-12T10:41:34.716Z,9.757481
2022-09-12T10:42:34.724Z,9.757541
2022-09-12T10:43:35.825Z,9.757627
2022-09-12T10:44:34.696Z,9.757421
2022-09-12T10:45:34.684Z,9.757421
2022-09-12T10:46:34.678Z,9.757431
2022-09-12T10:47:34.697Z,9.757733
2022-09-12T10:48:34.662Z,9.757565
2022-09-12T10:49:34.647Z,9.757481
2022-09-12T10:50:34.639Z,9.757349
2022-09-12T10:51:34.632Z,9.757449
2022-09-12T10:52:34.654Z,9.757454
2022-09-12T10:53:34.951Z,9.757434
2022-09-12T10:54:35.610Z,9.757441
2022-09-12T10:55:34.602Z,9.757463
2022-09-12T10:56:34.599Z,9.757449
2022-09-12T10:57:34.618Z,9.757641
2022-09-12T10:58:34.580Z,9.757489
2022-09-12T10:59:34.575Z,9.757566
2022-09-12T11:00:34.566Z,9.757499
2022-09-12T11:01:34.594Z,9.757541
2022-09-12T11:02:34.631Z,9.757439
2022-09-12T11:03:34.551Z,9.757441
2022-09-12T11:04:34.545Z,9.757553
2022-09-12T11:05:34.535Z,9.757480
2022-09-12T11:06:34.523Z,9.757556
2022-09-12T11:07:34.553Z,9.757479
2022-09-12T11:08:34.514Z,9.757601
2022-09-12T11:09:34.506Z,9.757455
2022-09-12T11:10:38.034Z,9.757453
2022-09-12T11:11:36.505Z,9.757483
2022-09-12T11:12:34.477Z,9.757515
2022-09-12T11:13:34.517Z,9.757348
2022-09-12T11:14:34.462Z,9.757460
2022-09-12T11:15:34.646Z,9.757461
2022-09-12T11:16:34.451Z,9.757506
2022-09-12T11:17:34.452Z,9.757590
2022-09-12T11:18:34.460Z,9.757450
2022-09-12T11:19:34.425Z,9.757469
2022-09-12T11:20:34.418Z,9.757528
2022-09-12T11:21:34.415Z,9.757490
2022-09-12T11:22:34.457Z,9.757502
2022-09-12T11:23:34.433Z,9.757518
2022-09-12T11:24:34.392Z,9.757516
2022-09-12T11:25:34.396Z,9.757459
2022-09-12T11:26:34.380Z,9.757518
2022-09-12T11:27:34.384Z,9.757320
2022-09-12T11:28:34.421Z,9.757364
2022-09-12T11:29:34.363Z,9.757384
2022-09-12T11:30:34.407Z,9.757404
2022-09-12T11:31:34.355Z,9.757482
2022-09-12T11:32:34.346Z,9.757423
2022-09-12T11:33:34.423Z,9.757461
2022-09-12T11:34:34.322Z,9.757455
2022-09-12T11:35:34.316Z,9.757383
2022-09-12T11:36:34.314Z,9.757478
2022-09-12T11:37:34.309Z,9.757413
2022-09-12T11:38:34.405Z,9.757758
2022-09-12T11:39:34.321Z,9.757594
2022-09-12T11:40:34.372Z,9.757485
2022-09-12T11:41:34.277Z,9.757540
2022-09-12T11:42:34.272Z,9.757426
2022-09-12T11:43:34.302Z,9.757417
2022-09-12T11:44:36.723Z,9.757459